< < Back
Terminal Aerodrome Forecast


Current Version              Previous Versions:   1  2  3  4  5  6  7  8  9  

Terminal Aerodrome Forecast

615
FTUS42 KGSP 290535
TAFHKY
TAF
KHKY 290535Z 2906/3006 02003KT P6SM SCT200=

Latest METAR

938
SAUS70 KWBC 291200 RRN
MTRHKY
METAR KHKY 291153Z 00000KT 10SM CLR 19/18 A3018 RMK AO2 SLP199 T01940183
10206 20189 53002


USA.gov is the U.S. government's official web portal to all federal, state and local government web resources and services.